createdAt,value
2018-05-09T00:01:26.441Z,14.00
2018-05-09T00:03:53.949Z,14.00
2018-05-09T00:06:21.402Z,14.00
2018-05-09T00:08:49.614Z,14.00
2018-05-09T00:11:17.083Z,14.00
2018-05-09T00:13:44.545Z,13.90
2018-05-09T00:16:12.759Z,13.60
2018-05-09T00:18:40.978Z,13.50
2018-05-09T00:21:08.418Z,13.40
2018-05-09T00:23:35.886Z,13.40
2018-05-09T00:26:03.438Z,13.50
2018-05-09T00:28:30.875Z,13.50
2018-05-09T00:30:58.335Z,13.40
2018-05-09T00:33:25.785Z,13.40
2018-05-09T00:35:54.003Z,13.30
2018-05-09T00:38:21.478Z,13.30
2018-05-09T00:40:48.933Z,13.30
2018-05-09T00:43:16.385Z,13.30
2018-05-09T00:45:43.861Z,13.20
2018-05-09T00:48:12.097Z,13.10
2018-05-09T00:50:39.554Z,13.00
2018-05-09T00:53:07.008Z,13.00
2018-05-09T00:55:34.459Z,13.00
2018-05-09T00:58:01.925Z,13.00
2018-05-09T01:00:29.372Z,13.00
2018-05-09T01:02:56.833Z,13.00
2018-05-09T01:05:24.294Z,13.00
2018-05-09T01:07:51.781Z,13.10
2018-05-09T01:10:19.234Z,13.10
2018-05-09T01:12:46.690Z,13.20
2018-05-09T01:15:14.162Z,13.20
2018-05-09T01:17:41.645Z,13.10
2018-05-09T01:20:09.856Z,12.80
2018-05-09T01:22:37.306Z,12.70
2018-05-09T01:25:04.777Z,12.80
2018-05-09T01:27:32.233Z,12.80
2018-05-09T01:29:59.682Z,12.80
2018-05-09T01:32:27.137Z,12.80
2018-05-09T01:34:54.628Z,12.80
2018-05-09T01:37:22.049Z,12.80
2018-05-09T01:39:49.497Z,12.70
2018-05-09T01:42:16.955Z,12.70
2018-05-09T01:44:44.412Z,12.60
2018-05-09T01:47:11.870Z,12.60
2018-05-09T01:49:39.329Z,12.60
2018-05-09T01:52:06.888Z,12.50
2018-05-09T01:54:34.345Z,12.50
2018-05-09T01:57:01.792Z,12.50
2018-05-09T01:59:29.253Z,12.50
2018-05-09T02:01:56.713Z,12.40
2018-05-09T02:04:24.171Z,12.30
2018-05-09T02:06:51.613Z,12.20
2018-05-09T02:09:19.070Z,12.10
2018-05-09T02:11:46.520Z,11.90
2018-05-09T02:14:14.739Z,11.80
2018-05-09T02:16:42.198Z,11.80
2018-05-09T02:19:10.490Z,11.90
2018-05-09T02:21:37.929Z,11.90
2018-05-09T02:24:05.466Z,11.90
2018-05-09T02:26:33.698Z,11.90
2018-05-09T02:29:01.190Z,11.90
2018-05-09T02:31:28.681Z,11.80
2018-05-09T02:33:56.138Z,11.70
2018-05-09T02:36:23.658Z,11.80
2018-05-09T02:38:51.143Z,11.80
2018-05-09T02:41:18.625Z,11.80
2018-05-09T02:43:46.102Z,11.70
2018-05-09T02:46:13.565Z,11.60
2018-05-09T02:48:41.836Z,11.50
2018-05-09T02:51:10.111Z,11.60
2018-05-09T02:53:38.384Z,11.60
2018-05-09T02:56:05.855Z,11.60
2018-05-09T02:58:33.333Z,11.50
2018-05-09T03:01:00.779Z,11.50
2018-05-09T03:03:29.074Z,11.40
2018-05-09T03:05:56.552Z,11.40
2018-05-09T03:08:23.998Z,11.40
2018-05-09T03:10:51.484Z,11.40
2018-05-09T03:13:18.959Z,11.50
2018-05-09T03:15:46.454Z,11.50
2018-05-09T03:18:13.922Z,11.50
2018-05-09T03:20:41.407Z,11.40
2018-05-09T03:23:08.882Z,11.40
2018-05-09T03:25:36.318Z,11.40
2018-05-09T03:28:03.783Z,11.30
2018-05-09T03:30:31.235Z,11.30
2018-05-09T03:32:58.729Z,11.30
2018-05-09T03:35:27.004Z,11.30
2018-05-09T03:37:54.474Z,11.30
2018-05-09T03:40:21.935Z,11.30
2018-05-09T03:42:50.154Z,11.20
2018-05-09T03:45:17.614Z,11.10
2018-05-09T03:47:45.118Z,11.20
2018-05-09T03:50:13.404Z,11.20
2018-05-09T03:52:40.864Z,11.20
2018-05-09T03:55:08.367Z,11.20
2018-05-09T03:57:35.821Z,11.20
2018-05-09T04:00:03.293Z,11.20
2018-05-09T04:02:44.495Z,11.20
2018-05-09T04:05:23.658Z,11.20
2018-05-09T04:08:03.118Z,11.30
2018-05-09T04:10:30.573Z,11.30
2018-05-09T04:12:58.025Z,11.30
2018-05-09T04:15:25.469Z,11.40
2018-05-09T04:17:52.915Z,11.50
2018-05-09T04:20:20.399Z,11.70
2018-05-09T04:22:47.895Z,11.80
2018-05-09T04:25:15.381Z,12.00
2018-05-09T04:27:43.612Z,12.30
2018-05-09T04:30:11.082Z,12.30
2018-05-09T04:32:38.522Z,12.40
2018-05-09T04:35:05.972Z,12.60
2018-05-09T04:37:33.406Z,12.70
2018-05-09T04:40:00.867Z,12.80
2018-05-09T04:42:28.319Z,12.90
2018-05-09T04:44:55.771Z,13.00
2018-05-09T04:47:23.214Z,13.00
2018-05-09T04:49:50.689Z,13.10
2018-05-09T04:52:18.129Z,13.20
2018-05-09T04:54:45.572Z,13.30
2018-05-09T04:57:13.794Z,13.40
2018-05-09T04:59:41.245Z,13.40
2018-05-09T05:02:08.698Z,13.30
2018-05-09T05:04:36.150Z,13.40
2018-05-09T05:07:03.707Z,13.40
2018-05-09T05:09:31.049Z,13.20
2018-05-09T05:11:58.541Z,13.20
2018-05-09T05:14:27.055Z,13.10
2018-05-09T05:16:55.276Z,13.10
2018-05-09T05:19:22.743Z,13.10
2018-05-09T05:21:50.276Z,13.20
2018-05-09T05:24:17.730Z,13.20
2018-05-09T05:26:45.174Z,13.40
2018-05-09T05:29:13.404Z,13.50
2018-05-09T05:31:40.859Z,13.50
2018-05-09T05:34:08.318Z,13.60
2018-05-09T05:36:35.786Z,13.70
2018-05-09T05:39:03.252Z,13.80
2018-05-09T05:41:30.719Z,14.00
2018-05-09T05:43:58.174Z,14.00
2018-05-09T05:46:25.648Z,13.90
2018-05-09T05:48:53.855Z,14.20
2018-05-09T05:51:21.316Z,14.10
2018-05-09T05:53:48.771Z,14.20
2018-05-09T05:56:16.222Z,14.20
2018-05-09T05:58:43.682Z,14.30
2018-05-09T06:01:11.147Z,14.30
2018-05-09T06:03:38.606Z,14.30
2018-05-09T06:06:06.050Z,14.50
2018-05-09T06:08:33.517Z,14.50
2018-05-09T06:11:00.962Z,14.30
2018-05-09T06:13:28.462Z,14.40
2018-05-09T06:15:55.968Z,14.50
2018-05-09T06:18:24.187Z,14.50
2018-05-09T06:20:51.647Z,14.50
2018-05-09T06:23:19.149Z,14.70
2018-05-09T06:25:46.605Z,14.80
2018-05-09T06:28:14.826Z,15.00
2018-05-09T06:30:42.293Z,15.00
2018-05-09T06:33:09.750Z,15.20
2018-05-09T06:35:37.212Z,15.10
2018-05-09T06:38:04.691Z,14.90
2018-05-09T06:40:32.138Z,15.10
2018-05-09T06:42:59.594Z,15.10
2018-05-09T06:45:27.054Z,15.20
2018-05-09T06:47:54.565Z,15.30
2018-05-09T06:50:22.006Z,15.50
2018-05-09T06:52:49.492Z,15.60
2018-05-09T06:55:16.946Z,15.60
2018-05-09T06:57:44.459Z,15.70
2018-05-09T07:00:12.687Z,15.90
2018-05-09T07:02:40.143Z,15.90
2018-05-09T07:05:07.615Z,15.90
2018-05-09T07:07:35.074Z,15.80
2018-05-09T07:10:02.541Z,15.90
2018-05-09T07:12:30.026Z,15.90
2018-05-09T07:14:57.455Z,16.00
2018-05-09T07:17:24.896Z,16.20
2018-05-09T07:19:52.374Z,16.40
2018-05-09T07:22:19.879Z,16.70
2018-05-09T07:24:47.286Z,16.40
2018-05-09T07:27:14.758Z,16.10
2018-05-09T07:29:42.970Z,16.30
2018-05-09T07:32:10.434Z,16.30
2018-05-09T07:34:37.887Z,16.40
2018-05-09T07:37:05.351Z,16.50
2018-05-09T07:39:32.789Z,16.50
2018-05-09T07:42:00.254Z,16.60
2018-05-09T07:44:27.702Z,16.60
2018-05-09T07:46:55.155Z,16.60
2018-05-09T07:49:22.612Z,16.70
2018-05-09T07:51:50.057Z,16.80
2018-05-09T07:54:17.506Z,16.90
2018-05-09T07:56:46.502Z,17.00
2018-05-09T07:59:14.754Z,16.80
2018-05-09T08:01:42.189Z,16.70
2018-05-09T08:04:09.650Z,16.70
2018-05-09T08:06:37.095Z,16.70
2018-05-09T08:09:05.273Z,16.80
2018-05-09T08:11:32.722Z,16.90
2018-05-09T08:14:00.178Z,17.10
2018-05-09T08:16:27.647Z,17.30
2018-05-09T08:18:55.869Z,17.40
2018-05-09T08:21:24.090Z,17.40
2018-05-09T08:23:51.635Z,17.40
2018-05-09T08:26:19.000Z,17.60
2018-05-09T08:28:46.448Z,17.60
2018-05-09T08:31:13.911Z,17.60
2018-05-09T08:33:41.360Z,17.80
2018-05-09T08:36:08.822Z,17.90
2018-05-09T08:38:36.272Z,18.10
2018-05-09T08:41:03.734Z,18.00
2018-05-09T08:43:31.230Z,18.00
2018-05-09T08:45:58.640Z,18.00
2018-05-09T08:48:26.090Z,18.00
2018-05-09T08:50:53.527Z,18.00
2018-05-09T08:53:21.737Z,18.20
2018-05-09T08:55:49.198Z,18.10
2018-05-09T08:58:16.659Z,18.40
2018-05-09T09:00:44.105Z,18.50
2018-05-09T09:03:11.547Z,18.30
2018-05-09T09:05:39.009Z,18.30
2018-05-09T09:08:06.445Z,18.40
2018-05-09T09:10:34.661Z,18.80
2018-05-09T09:13:02.108Z,18.80
2018-05-09T09:15:29.652Z,18.90
2018-05-09T09:17:57.058Z,18.80
2018-05-09T09:20:24.508Z,18.50
2018-05-09T09:22:52.722Z,18.80
2018-05-09T09:25:20.936Z,19.10
2018-05-09T09:27:48.398Z,19.10
2018-05-09T09:30:15.840Z,19.20
2018-05-09T09:32:43.290Z,19.10
2018-05-09T09:35:10.735Z,19.30
2018-05-09T09:37:38.189Z,19.40
2018-05-09T09:40:06.392Z,19.60
2018-05-09T09:42:33.848Z,19.60
2018-05-09T09:45:01.309Z,19.50
2018-05-09T09:47:28.766Z,19.40
2018-05-09T09:49:56.210Z,19.50
2018-05-09T09:52:23.650Z,19.80
2018-05-09T09:54:51.246Z,19.60
2018-05-09T09:57:18.696Z,19.50
2018-05-09T09:59:46.133Z,19.60
2018-05-09T10:02:13.596Z,19.70
2018-05-09T10:04:41.046Z,19.90
2018-05-09T10:07:08.496Z,19.80
2018-05-09T10:09:35.936Z,19.70
2018-05-09T10:12:04.148Z,19.70
2018-05-09T10:14:31.585Z,19.70
2018-05-09T10:16:59.029Z,19.70
2018-05-09T10:19:27.237Z,20.20
2018-05-09T10:21:54.692Z,20.20
2018-05-09T10:24:22.140Z,20.40
2018-05-09T10:26:49.600Z,20.30
2018-05-09T10:29:17.054Z,20.40
2018-05-09T10:31:44.496Z,20.20
2018-05-09T10:34:11.954Z,20.50
2018-05-09T10:36:39.428Z,20.60
2018-05-09T10:39:07.788Z,20.90
2018-05-09T10:41:35.994Z,21.00
2018-05-09T10:44:03.459Z,20.90
2018-05-09T10:46:30.898Z,20.70
2018-05-09T10:48:58.357Z,20.40
2018-05-09T10:51:25.801Z,20.30
2018-05-09T10:53:53.263Z,20.30
2018-05-09T10:56:21.655Z,20.40
2018-05-09T10:58:49.101Z,20.60
2018-05-09T11:01:16.550Z,20.90
2018-05-09T11:03:44.002Z,21.20
2018-05-09T11:06:12.214Z,21.30
2018-05-09T11:08:39.654Z,21.20
2018-05-09T11:11:07.097Z,21.10
2018-05-09T11:13:34.541Z,20.80
2018-05-09T11:16:02.757Z,20.60
2018-05-09T11:18:30.201Z,20.60
2018-05-09T11:20:57.653Z,20.70
2018-05-09T11:23:25.094Z,21.10
2018-05-09T11:25:52.550Z,21.20
2018-05-09T11:28:19.997Z,21.10
2018-05-09T11:30:47.442Z,21.20
2018-05-09T11:33:15.655Z,21.70
2018-05-09T11:35:43.103Z,21.70
2018-05-09T11:38:10.572Z,22.10
2018-05-09T11:40:38.018Z,22.60
2018-05-09T11:43:05.463Z,22.70
2018-05-09T11:45:32.901Z,22.40
2018-05-09T11:48:01.122Z,21.90
2018-05-09T11:50:28.574Z,21.90
2018-05-09T11:52:56.027Z,22.00
2018-05-09T11:55:23.483Z,21.80
2018-05-09T11:57:50.941Z,21.60
2018-05-09T12:00:18.387Z,21.40
2018-05-09T12:02:45.861Z,21.30
2018-05-09T12:05:13.302Z,21.00
2018-05-09T12:07:40.762Z,21.20
2018-05-09T12:10:08.219Z,21.40
2018-05-09T12:12:35.658Z,21.60
2018-05-09T12:15:03.114Z,21.60
2018-05-09T12:17:31.324Z,21.80
2018-05-09T12:19:58.764Z,21.70
2018-05-09T12:22:26.215Z,21.70
2018-05-09T12:24:53.670Z,21.50
2018-05-09T12:27:21.111Z,21.40
2018-05-09T12:29:49.319Z,21.60
2018-05-09T12:32:16.768Z,21.60
2018-05-09T12:34:44.231Z,21.70
2018-05-09T12:37:11.682Z,21.60
2018-05-09T12:39:39.127Z,21.80
2018-05-09T12:42:06.580Z,21.60
2018-05-09T12:44:34.025Z,21.50
2018-05-09T12:47:02.246Z,21.70
2018-05-09T12:49:29.681Z,21.60
2018-05-09T12:51:57.142Z,21.70
2018-05-09T12:54:24.581Z,21.50
2018-05-09T12:56:52.037Z,21.20
2018-05-09T12:59:19.480Z,21.30
2018-05-09T13:01:47.714Z,21.40
2018-05-09T13:04:15.165Z,21.40
2018-05-09T13:06:42.642Z,21.60
2018-05-09T13:09:10.086Z,21.80
2018-05-09T13:11:37.542Z,21.90
2018-05-09T13:14:05.001Z,22.00
2018-05-09T13:16:32.455Z,21.90
2018-05-09T13:18:59.898Z,22.00
2018-05-09T13:21:27.392Z,22.00
2018-05-09T13:23:55.645Z,21.80
2018-05-09T13:26:23.084Z,21.70
2018-05-09T13:28:50.537Z,21.60
2018-05-09T13:31:17.998Z,21.60
2018-05-09T13:33:45.449Z,21.40
2018-05-09T13:36:12.899Z,21.20
2018-05-09T13:38:40.347Z,21.00
2018-05-09T13:41:07.782Z,20.60
2018-05-09T13:43:36.011Z,20.10
2018-05-09T13:46:03.493Z,20.10
2018-05-09T13:48:30.918Z,19.90
2018-05-09T13:50:58.368Z,19.80
2018-05-09T13:53:26.261Z,19.60
2018-05-09T13:55:53.722Z,19.40
2018-05-09T13:58:21.174Z,19.20
2018-05-09T14:00:48.635Z,19.10
2018-05-09T14:03:16.084Z,18.90
2018-05-09T14:05:43.558Z,18.80
2018-05-09T14:08:11.015Z,18.60
2018-05-09T14:10:38.469Z,18.40
2018-05-09T14:13:05.917Z,18.20
2018-05-09T14:15:33.413Z,18.10
2018-05-09T14:18:00.822Z,18.10
2018-05-09T14:20:29.848Z,18.20
2018-05-09T14:22:58.182Z,18.40
2018-05-09T14:25:27.744Z,18.40
2018-05-09T14:27:55.746Z,18.60
2018-05-09T14:30:23.195Z,18.70
2018-05-09T14:32:50.646Z,18.80
2018-05-09T14:35:18.087Z,19.00
2018-05-09T14:37:46.325Z,19.40
2018-05-09T14:40:13.775Z,19.40
2018-05-09T14:42:41.242Z,19.60
2018-05-09T14:45:08.688Z,19.90
2018-05-09T14:47:36.139Z,20.00
2018-05-09T14:50:03.581Z,20.20
2018-05-09T14:52:31.027Z,20.40
2018-05-09T14:54:58.490Z,20.70
2018-05-09T14:57:25.926Z,20.90
2018-05-09T14:59:53.368Z,21.40
2018-05-09T15:02:20.817Z,21.80
2018-05-09T15:04:49.044Z,22.30
2018-05-09T15:07:16.483Z,22.30
2018-05-09T15:09:43.958Z,22.50
2018-05-09T15:12:11.405Z,22.70
2018-05-09T15:14:38.858Z,22.50
2018-05-09T15:17:06.298Z,22.50
2018-05-09T15:19:33.798Z,22.70
2018-05-09T15:22:01.958Z,22.50
2018-05-09T15:24:29.411Z,22.40
2018-05-09T15:26:56.963Z,22.50
2018-05-09T15:29:24.402Z,22.70
2018-05-09T15:31:51.845Z,23.00
2018-05-09T15:34:20.061Z,23.20
2018-05-09T15:36:47.521Z,23.20
2018-05-09T15:39:14.982Z,23.50
2018-05-09T15:41:42.438Z,23.70
2018-05-09T15:44:09.873Z,23.80
2018-05-09T15:46:37.323Z,24.10
2018-05-09T15:49:04.777Z,25.00
2018-05-09T15:51:32.214Z,26.40
2018-05-09T15:54:00.439Z,28.60
2018-05-09T15:56:27.885Z,28.50
2018-05-09T15:58:55.330Z,28.80
2018-05-09T16:01:22.786Z,28.00
2018-05-09T16:03:50.234Z,26.70
2018-05-09T16:06:17.697Z,25.80
2018-05-09T16:08:45.145Z,25.00
2018-05-09T16:11:12.597Z,24.50
2018-05-09T16:13:40.802Z,24.00
2018-05-09T16:16:08.257Z,24.00
2018-05-09T16:18:35.720Z,23.80
2018-05-09T16:21:03.178Z,23.70
2018-05-09T16:23:30.626Z,23.60
2018-05-09T16:25:58.081Z,23.50
2018-05-09T16:28:25.530Z,23.50
2018-05-09T16:30:52.986Z,23.60
2018-05-09T16:33:20.451Z,23.70
2018-05-09T16:35:47.894Z,24.00
2018-05-09T16:38:15.351Z,24.50
2018-05-09T16:40:42.796Z,24.70
2018-05-09T16:43:11.014Z,24.70
2018-05-09T16:45:38.467Z,24.70
2018-05-09T16:48:05.928Z,24.80
2018-05-09T16:50:33.372Z,25.20
2018-05-09T16:53:00.822Z,26.10
2018-05-09T16:55:28.290Z,27.20
2018-05-09T16:57:55.729Z,28.40
2018-05-09T17:00:23.191Z,29.50
2018-05-09T17:02:50.625Z,30.20
2018-05-09T17:05:18.845Z,31.30
2018-05-09T17:07:46.327Z,31.30
2018-05-09T17:10:13.802Z,31.40
2018-05-09T17:12:42.032Z,32.20
2018-05-09T17:15:09.488Z,32.20
2018-05-09T17:17:36.936Z,32.40
2018-05-09T17:20:04.400Z,32.60
2018-05-09T17:22:34.641Z,32.70
2018-05-09T17:25:02.083Z,32.90
2018-05-09T17:27:29.556Z,33.10
2018-05-09T17:29:57.002Z,32.90
2018-05-09T17:32:24.462Z,32.60
2018-05-09T17:34:51.925Z,32.20
2018-05-09T17:37:19.378Z,32.10
2018-05-09T17:39:46.827Z,32.30
2018-05-09T17:42:14.305Z,32.50
2018-05-09T17:44:41.749Z,32.30
2018-05-09T17:47:09.208Z,32.00
2018-05-09T17:49:36.665Z,31.90
2018-05-09T17:52:04.142Z,31.70
2018-05-09T17:54:31.590Z,31.30
2018-05-09T17:56:59.050Z,31.00
2018-05-09T17:59:26.497Z,30.40
2018-05-09T18:01:53.972Z,29.50
2018-05-09T18:04:21.427Z,28.00
2018-05-09T18:06:48.883Z,27.10
2018-05-09T18:09:16.350Z,26.00
2018-05-09T18:11:43.811Z,25.10
2018-05-09T18:14:12.034Z,23.60
2018-05-09T18:16:39.490Z,23.60
2018-05-09T18:19:06.967Z,23.10
2018-05-09T18:21:34.422Z,22.60
2018-05-09T18:24:01.862Z,22.10
2018-05-09T18:26:29.314Z,21.80
2018-05-09T18:28:56.766Z,21.20
2018-05-09T18:31:24.215Z,20.90
2018-05-09T18:33:51.665Z,20.60
2018-05-09T18:36:19.117Z,20.40
2018-05-09T18:38:47.342Z,19.80
2018-05-09T18:41:14.784Z,19.80
2018-05-09T18:43:42.225Z,19.60
2018-05-09T18:46:09.682Z,19.50
2018-05-09T18:48:37.129Z,19.50
2018-05-09T18:51:04.587Z,19.40
2018-05-09T18:53:32.026Z,19.30
2018-05-09T18:56:00.240Z,18.90
2018-05-09T18:58:27.696Z,18.90
2018-05-09T19:00:55.146Z,18.80
2018-05-09T19:03:22.589Z,18.70
2018-05-09T19:05:50.032Z,18.60
2018-05-09T19:08:17.489Z,18.50
2018-05-09T19:10:45.712Z,18.30
2018-05-09T19:13:13.157Z,18.20
2018-05-09T19:15:40.614Z,18.10
2018-05-09T19:18:08.884Z,18.00
2018-05-09T19:20:36.415Z,17.90
2018-05-09T19:23:03.906Z,17.70
2018-05-09T19:25:31.341Z,17.60
2018-05-09T19:27:58.811Z,17.60
2018-05-09T19:30:26.250Z,17.50
2018-05-09T19:32:53.702Z,17.40
2018-05-09T19:35:21.167Z,17.20
2018-05-09T19:37:48.607Z,17.10
2018-05-09T19:40:16.061Z,17.00
2018-05-09T19:42:44.263Z,16.80
2018-05-09T19:45:11.710Z,16.80
2018-05-09T19:47:39.153Z,16.80
2018-05-09T19:50:06.598Z,16.80
2018-05-09T19:52:34.045Z,16.70
2018-05-09T19:55:01.592Z,16.60
2018-05-09T19:57:28.939Z,16.60
2018-05-09T19:59:56.385Z,16.50
2018-05-09T20:02:23.833Z,16.50
2018-05-09T20:04:51.277Z,16.40
2018-05-09T20:07:18.733Z,16.40
2018-05-09T20:09:46.179Z,16.30
2018-05-09T20:12:13.635Z,16.20
2018-05-09T20:14:41.077Z,16.10
2018-05-09T20:17:09.288Z,16.00
2018-05-09T20:19:36.738Z,15.90
2018-05-09T20:22:04.197Z,15.90
2018-05-09T20:24:31.649Z,15.80
2018-05-09T20:26:59.101Z,15.70
2018-05-09T20:29:26.559Z,15.50
2018-05-09T20:35:14.117Z,15.20
2018-05-09T20:37:41.624Z,15.10
2018-05-09T20:40:09.113Z,15.00
2018-05-09T20:42:36.593Z,15.00
2018-05-09T20:45:04.464Z,15.00
2018-05-09T20:47:31.983Z,15.00
2018-05-09T20:49:59.481Z,14.80
2018-05-09T20:52:27.721Z,14.60
2018-05-09T20:54:55.200Z,14.60
2018-05-09T20:57:22.709Z,14.50
2018-05-09T20:59:50.186Z,14.50
2018-05-09T21:02:17.672Z,14.50
2018-05-09T21:04:45.168Z,14.50
2018-05-09T21:07:12.707Z,14.50
2018-05-09T21:09:40.195Z,14.50
2018-05-09T21:12:09.504Z,14.50
2018-05-09T21:14:37.013Z,14.40
2018-05-09T21:17:04.503Z,14.30
2018-05-09T21:19:31.997Z,14.40
2018-05-09T21:21:59.479Z,14.40
2018-05-09T21:24:26.954Z,14.40
2018-05-09T21:26:54.441Z,14.40
2018-05-09T21:29:21.945Z,14.40
2018-05-09T21:31:49.439Z,14.20
2018-05-09T21:34:16.968Z,14.20
2018-05-09T21:36:44.458Z,14.20
2018-05-09T21:39:12.006Z,14.10
2018-05-09T21:41:39.540Z,14.00
2018-05-09T21:44:07.058Z,14.00
2018-05-09T21:46:34.604Z,13.90
2018-05-09T21:49:02.882Z,13.80
2018-05-09T21:51:30.371Z,13.80
2018-05-09T21:53:57.928Z,13.80
2018-05-09T21:56:25.402Z,13.80
2018-05-09T21:58:52.886Z,13.90
2018-05-09T22:01:23.294Z,13.90
2018-05-09T22:03:50.778Z,13.90
2018-05-09T22:06:18.293Z,13.80
2018-05-09T22:08:45.791Z,13.90
2018-05-09T22:11:13.281Z,13.90
2018-05-09T22:13:40.757Z,14.00
2018-05-09T22:16:08.282Z,14.00
2018-05-09T22:18:35.741Z,14.00
2018-05-09T22:21:03.226Z,13.90
2018-05-09T22:23:30.696Z,13.90
2018-05-09T22:25:58.179Z,14.00
2018-05-09T22:28:25.656Z,13.90
2018-05-09T22:30:53.149Z,13.90
2018-05-09T22:33:21.403Z,13.80
2018-05-09T22:35:48.901Z,13.80
2018-05-09T22:38:16.455Z,13.80
2018-05-09T22:40:43.946Z,13.70
2018-05-09T22:43:11.564Z,13.70
2018-05-09T22:45:38.971Z,13.60
2018-05-09T22:48:07.253Z,13.40
2018-05-09T22:50:34.770Z,13.40
2018-05-09T22:53:02.300Z,13.40
2018-05-09T22:55:29.773Z,13.40
2018-05-09T22:57:57.281Z,13.40
2018-05-09T23:00:25.684Z,13.40
2018-05-09T23:02:53.987Z,13.40
2018-05-09T23:05:21.473Z,13.40
2018-05-09T23:07:49.715Z,13.20
2018-05-09T23:10:17.227Z,13.20
2018-05-09T23:12:44.693Z,13.20
2018-05-09T23:15:12.204Z,13.30
2018-05-09T23:17:39.673Z,13.20
2018-05-09T23:20:07.164Z,13.20
2018-05-09T23:22:35.401Z,13.10
2018-05-09T23:25:02.901Z,13.10
2018-05-09T23:27:30.395Z,13.20
2018-05-09T23:29:57.862Z,13.20
2018-05-09T23:32:26.110Z,13.00
2018-05-09T23:34:53.582Z,13.00
2018-05-09T23:37:21.071Z,12.80
2018-05-09T23:39:49.368Z,12.70
2018-05-09T23:42:17.627Z,12.80
2018-05-09T23:44:45.111Z,12.80
2018-05-09T23:47:12.606Z,12.80
2018-05-09T23:49:40.089Z,12.80
2018-05-09T23:52:07.687Z,12.80
2018-05-09T23:54:35.125Z,12.90
2018-05-09T23:57:02.595Z,12.90
2018-05-09T23:59:30.068Z,12.80
